Cape Peony — 3FDX6 — position and weather

sailwx.info

Track history (hours):
 
Tides and Currents Weather Stations Pressure Air Temp Water Temp Dewpoint Dewpoint Depression Visibility Wind Speed Wind Dir Waves Ship Positions

Cape Peony

Last reported at 2017-Apr-25 01:26 UTC. Time now 2017-Apr-30 14:35 UTC.
Position N 49°48' W 005°19'.

Length 292 m; draft 11 m.

Type: Cargo ship. MMSI: 373590000.

Date/timePositionNaut miles runAvg speedWind from/ knotsBaromVisibWave heightAir tempDewpointWater temp
2017-Apr-25 01:26N 49°48' W 005°19'614.9
2017-Apr-25 01:00N 49°49' W 005°10'815.2
2017-Apr-25 00:31N 49°49' W 004°58'815.4
2017-Apr-25 00:01N 49°50' W 004°46'815.5
2017-Apr-24 23:30N 49°52' W 004°34'715.2
2017-Apr-24 23:00N 49°52' W 004°22'915.0
2017-Apr-24 22:26N 49°53' W 004°09'815.2
2017-Apr-24 21:55N 49°54' W 003°57'615.4
2017-Apr-24 21:31N 49°55' W 003°47'815.1
2017-Apr-24 21:00N 49°56' W 003°36'714.5
2017-Apr-24 20:30N 49°57' W 003°25'714.1
2017-Apr-24 20:00N 49°58' W 003°14'713.4
2017-Apr-24 19:30N 49°59' W 003°03'612.5
2017-Apr-24 19:00N 50°00' W 002°54'612.1
2017-Apr-24 18:30N 50°02' W 002°45'1311.7
2017-Apr-24 17:26N 50°05' W 002°26'611.7
2017-Apr-24 16:58N 50°06' W 002°18'1412.3
2017-Apr-24 15:51N 50°10' W 001°57'713.4
2017-Apr-24 15:21N 50°12' W 001°47'514.1
2017-Apr-24 15:00N 50°13' W 001°39'915.0
2017-Apr-24 14:22N 50°16' W 001°25'1416.0
2017-Apr-24 13:30N 50°19' W 001°04'1316.4
2017-Apr-24 12:45N 50°22' W 000°45'416.3
2017-Apr-24 12:30N 50°24' W 000°39'816.0
2017-Apr-24 12:00N 50°26' W 000°27'815.4
2017-Apr-24 11:30N 50°27' W 000°16'815.0
2017-Apr-24 11:00N 50°29' W 000°04'714.6
2017-Apr-24 10:30N 50°32' E 000°07'714.1
2017-Apr-24 10:00N 50°33' E 000°17'713.6
2017-Apr-24 09:30N 50°35' E 000°28'613.0
2017-Apr-24 09:00N 50°38' E 000°37'612.9
2017-Apr-24 08:30N 50°41' E 000°46'612.6
2017-Apr-24 08:00N 50°45' E 000°54'612.6
2017-Apr-24 07:30N 50°48' E 001°02'713.2
2017-Apr-24 07:00N 50°52' E 001°10'714.0
2017-Apr-24 06:30N 50°56' E 001°20'714.5
2017-Apr-24 06:00N 51°01' E 001°28'714.8
2017-Apr-24 05:30N 51°07' E 001°36'714.5
2017-Apr-24 05:00N 51°12' E 001°44'713.9
2017-Apr-24 04:31N 51°17' E 001°51'713.4
2017-Apr-24 04:00N 51°23' E 001°57'612.7
2017-Apr-24 03:31N 51°28' E 002°02'612.3
2017-Apr-24 03:00N 51°33' E 002°08'612.1
2017-Apr-24 02:31N 51°37' E 002°15'611.8
2017-Apr-24 02:01N 51°42' E 002°21'611.5
2017-Apr-24 01:30N 51°46' E 002°28'611.1
2017-Apr-24 01:00N 51°50' E 002°34'611.0
2017-Apr-24 00:29N 51°54' E 002°40'511.0
2017-Apr-24 00:00N 51°58' E 002°46'1611.0
2017-Apr-23 22:33N 52°03' E 003°11'312.2
2017-Apr-23 22:20N 52°03' E 003°15'412.4
2017-Apr-23 22:00N 52°03' E 003°22'613.1
2017-Apr-23 21:30N 52°04' E 003°32'713.6
2017-Apr-23 21:00N 52°03' E 003°43'611.3
2017-Apr-23 20:30N 52°02' E 003°52'510.2
2017-Apr-23 20:00N 52°00' E 003°60'4 9.0
2017-Apr-23 19:30N 51°58' E 004°06'0 0.6
2017-Apr-23 19:00N 51°58' E 004°06'0 0.0
2017-Apr-23 18:30N 51°58' E 004°06'0 0.0
2017-Apr-23 18:00N 51°58' E 004°06'0 0.0
2017-Apr-23 17:30N 51°58' E 004°06'0 0.0
2017-Apr-23 17:00N 51°58' E 004°06'0 0.0
2017-Apr-23 16:30N 51°58' E 004°06'0 0.0
2017-Apr-23 16:00N 51°58' E 004°06'0 0.0
2017-Apr-23 15:30N 51°58' E 004°06'0 0.0
2017-Apr-23 15:00N 51°58' E 004°06'0 0.0
2017-Apr-23 14:00N 51°58' E 004°06'0 0.0
2017-Apr-23 13:30N 51°58' E 004°06'0 0.0
2017-Apr-23 13:00N 51°58' E 004°06'0 0.0
2017-Apr-23 12:30N 51°58' E 004°06'0 0.0
2017-Apr-23 12:00N 51°58' E 004°06'0 0.0
2017-Apr-23 11:30N 51°58' E 004°06'0 0.0
2017-Apr-23 11:00N 51°58' E 004°06'0 0.0
2017-Apr-23 10:30N 51°58' E 004°06'0 0.0
2017-Apr-23 10:00N 51°58' E 004°06'0 0.0
2017-Apr-23 09:30N 51°58' E 004°06'0 0.0
2017-Apr-23 09:00N 51°58' E 004°06'0 0.0
2017-Apr-23 08:30N 51°58' E 004°06'0 0.0
2017-Apr-23 08:00N 51°58' E 004°06'0 0.0
2017-Apr-23 07:30N 51°58' E 004°06'0 0.0
2017-Apr-23 07:00N 51°58' E 004°06'0 0.0
2017-Apr-23 06:30N 51°58' E 004°06'0 0.0
2017-Apr-23 06:00N 51°58' E 004°06'0 0.0
2017-Apr-23 05:30N 51°58' E 004°06'0 0.0
2017-Apr-23 05:00N 51°58' E 004°06'0 0.0
2017-Apr-23 04:30N 51°58' E 004°06'0 0.0
2017-Apr-23 04:00N 51°58' E 004°06'0 0.0
2017-Apr-23 03:30N 51°58' E 004°06'0 0.0
2017-Apr-23 03:00N 51°58' E 004°06'0 0.0
2017-Apr-23 02:30N 51°58' E 004°06'0 0.0
2017-Apr-23 02:00N 51°58' E 004°06'0 0.0
2017-Apr-23 01:30N 51°58' E 004°06'0 0.0
2017-Apr-23 01:00N 51°58' E 004°06'0 0.0
2017-Apr-23 00:30N 51°58' E 004°06'0 0.0
2017-Apr-23 00:00N 51°58' E 004°06'0 0.0
2017-Apr-22 23:30N 51°58' E 004°06'0 0.0
2017-Apr-22 23:00N 51°58' E 004°06'0 0.0
2017-Apr-22 22:30N 51°58' E 004°06'0 0.0
2017-Apr-22 22:00N 51°58' E 004°06'0 0.0
2017-Apr-22 21:30N 51°58' E 004°06'0 0.0
2017-Apr-22 21:00N 51°58' E 004°06'0 0.0
2017-Apr-22 20:30N 51°58' E 004°06'0 0.0
2017-Apr-22 20:00N 51°58' E 004°06'0 0.0
2017-Apr-22 19:30N 51°58' E 004°06'0 0.0
2017-Apr-22 19:00N 51°58' E 004°06'0 0.0
2017-Apr-22 18:30N 51°58' E 004°06'0 0.0
2017-Apr-22 18:00N 51°58' E 004°06'0 0.0
2017-Apr-22 17:30N 51°58' E 004°06'0 0.0
2017-Apr-22 17:00N 51°58' E 004°06'0 0.0
2017-Apr-22 16:30N 51°58' E 004°06'0 0.0
2017-Apr-22 16:00N 51°58' E 004°06'0 0.0
2017-Apr-22 15:30N 51°58' E 004°06'0 0.0
2017-Apr-22 15:00N 51°58' E 004°06'0 0.0
2017-Apr-22 14:30N 51°58' E 004°06'0 0.0
2017-Apr-22 13:30N 51°58' E 004°06'0 0.0
2017-Apr-22 13:00N 51°58' E 004°06'0 0.0
2017-Apr-22 12:30N 51°58' E 004°06'0 0.0
2017-Apr-22 12:00N 51°58' E 004°06'0 0.0
2017-Apr-22 11:30N 51°58' E 004°06'0 0.0
2017-Apr-22 11:00N 51°58' E 004°06'0 0.0
2017-Apr-22 10:30N 51°58' E 004°06'0 0.0
2017-Apr-22 10:00N 51°58' E 004°06'0 0.0
2017-Apr-22 09:30N 51°58' E 004°06'0 0.0
2017-Apr-22 09:00N 51°58' E 004°06'0 0.0
2017-Apr-22 08:30N 51°58' E 004°06'0 0.0
2017-Apr-22 08:00N 51°58' E 004°06'0 0.0
2017-Apr-22 07:30N 51°58' E 004°06'0 0.0
2017-Apr-22 07:00N 51°58' E 004°06'0 0.0
2017-Apr-22 06:30N 51°58' E 004°06'0 0.0
2017-Apr-22 06:00N 51°58' E 004°06'0 0.0
2017-Apr-22 05:30N 51°58' E 004°06'0 0.0
2017-Apr-22 05:00N 51°58' E 004°06'0 0.0
2017-Apr-22 04:30N 51°58' E 004°06'0 0.0
2017-Apr-22 04:00N 51°58' E 004°06'0 0.0
2017-Apr-22 03:30N 51°58' E 004°06'0 0.0
2017-Apr-22 03:00N 51°58' E 004°06'0 0.0
2017-Apr-22 02:30N 51°58' E 004°06'0 0.0
2017-Apr-22 02:00N 51°58' E 004°06'0 0.0
2017-Apr-22 01:30N 51°58' E 004°06'0 0.0
2017-Apr-22 01:00N 51°58' E 004°06'0 0.0
2017-Apr-22 00:30N 51°58' E 004°06'0 0.0
2017-Apr-22 00:00N 51°58' E 004°06'0 0.0
2017-Apr-21 23:30N 51°58' E 004°06'0 0.0
2017-Apr-21 23:00N 51°58' E 004°06'0 0.0
2017-Apr-21 22:30N 51°58' E 004°06'0 0.0
2017-Apr-21 22:00N 51°58' E 004°06'0 0.0
2017-Apr-21 21:30N 51°58' E 004°06'0 0.0
2017-Apr-21 21:00N 51°58' E 004°06'0 0.0
2017-Apr-21 20:30N 51°58' E 004°06'0 0.0
2017-Apr-21 20:00N 51°58' E 004°06'0 0.0
2017-Apr-21 19:30N 51°58' E 004°06'0 0.0
2017-Apr-21 19:00N 51°58' E 004°06'0 0.0
2017-Apr-21 18:30N 51°58' E 004°06'0 0.0
2017-Apr-21 18:00N 51°58' E 004°06'0 0.0
2017-Apr-21 17:30N 51°58' E 004°06'0 0.0
2017-Apr-21 17:00N 51°58' E 004°06'0 0.0
2017-Apr-21 16:30N 51°58' E 004°06'0 0.0
2017-Apr-21 16:00N 51°58' E 004°06'0 0.0
2017-Apr-21 15:30N 51°58' E 004°06'0 0.0
2017-Apr-21 15:00N 51°58' E 004°06'0 0.0
2017-Apr-21 14:30N 51°58' E 004°06'0 0.0
2017-Apr-21 13:30N 51°58' E 004°06'0 0.0
2017-Apr-21 13:00N 51°58' E 004°06'0 0.0
2017-Apr-21 12:30N 51°58' E 004°06'0 0.0
2017-Apr-21 12:00N 51°58' E 004°06'0 0.0
2017-Apr-21 11:30N 51°58' E 004°06'0 0.0
2017-Apr-21 11:00N 51°58' E 004°06'0 0.0
2017-Apr-21 10:30N 51°58' E 004°06'0 0.0
2017-Apr-21 10:00N 51°58' E 004°06'0 0.0
2017-Apr-21 09:30N 51°58' E 004°06'0 0.0
2017-Apr-21 09:00N 51°58' E 004°06'0 0.0
2017-Apr-21 08:30N 51°58' E 004°06'0 0.0
2017-Apr-21 07:57N 51°58' E 004°06'0 0.0
2017-Apr-21 07:30N 51°58' E 004°06'0 0.0
2017-Apr-21 07:00N 51°58' E 004°06'0 0.0
2017-Apr-21 06:30N 51°58' E 004°06'0 0.0
2017-Apr-21 06:00N 51°58' E 004°06'0 0.0
2017-Apr-21 05:30N 51°58' E 004°06'0 0.0
2017-Apr-21 05:00N 51°58' E 004°06'0 0.0
2017-Apr-21 04:30N 51°58' E 004°06'0 0.0
2017-Apr-21 04:00N 51°58' E 004°06'0 0.0
2017-Apr-21 03:30N 51°58' E 004°06'0 0.0
2017-Apr-21 03:00N 51°58' E 004°06'0 0.0
2017-Apr-21 02:30N 51°58' E 004°06'0 0.0
2017-Apr-21 02:00N 51°58' E 004°06'0 0.0
2017-Apr-21 01:30N 51°58' E 004°06'0 0.0
2017-Apr-21 01:00N 51°58' E 004°06'0 0.0
2017-Apr-21 00:30N 51°58' E 004°06'0 0.0
2017-Apr-21 00:00N 51°58' E 004°06'0 0.0
2017-Apr-20 23:30N 51°58' E 004°06'0 0.0
2017-Apr-20 23:00N 51°58' E 004°06'0 0.0
2017-Apr-20 22:30N 51°58' E 004°06'0 0.0
2017-Apr-20 22:00N 51°58' E 004°06'0 0.0
2017-Apr-20 21:30N 51°58' E 004°06'0 0.0
2017-Apr-20 21:00N 51°58' E 004°06'0 0.0
2017-Apr-20 20:30N 51°58' E 004°06'0 0.0
2017-Apr-20 20:00N 51°58' E 004°06'0 0.0
2017-Apr-20 19:30N 51°58' E 004°06'0 0.0
2017-Apr-20 19:00N 51°58' E 004°06'0 0.0
2017-Apr-20 18:30N 51°58' E 004°06'0 0.0
2017-Apr-20 18:00N 51°58' E 004°06'0 0.0
2017-Apr-20 17:30N 51°58' E 004°06'0 0.0
2017-Apr-20 17:00N 51°58' E 004°06'0 0.0
2017-Apr-20 16:30N 51°58' E 004°06'0 0.0
2017-Apr-20 16:00N 51°58' E 004°06'0 0.0
2017-Apr-20 15:30N 51°58' E 004°06'0 0.0
2017-Apr-20 15:00N 51°58' E 004°06'0 0.0
2017-Apr-20 14:30N 51°58' E 004°06'0 0.0
2017-Apr-20 13:30N 51°58' E 004°06'0 0.0
2017-Apr-20 13:00N 51°58' E 004°06'0 0.0
2017-Apr-20 12:30N 51°58' E 004°06'0 0.0
2017-Apr-20 12:00N 51°58' E 004°06'0 0.0
2017-Apr-20 11:30N 51°58' E 004°06'0 0.0
2017-Apr-20 11:00N 51°58' E 004°06'0 0.0
2017-Apr-20 10:30N 51°58' E 004°06'0 0.0
2017-Apr-20 10:00N 51°58' E 004°06'0 0.0
2017-Apr-20 09:30N 51°58' E 004°06'0 0.0
2017-Apr-20 09:00N 51°58' E 004°06'0 0.0
2017-Apr-20 08:30N 51°58' E 004°06'0 0.0
2017-Apr-20 08:00N 51°58' E 004°06'0 0.0
2017-Apr-20 07:30N 51°58' E 004°06'0 0.0
2017-Apr-20 07:00N 51°58' E 004°06'0 0.0
2017-Apr-20 06:30N 51°58' E 004°06'0 0.0
2017-Apr-20 06:00N 51°58' E 004°06'0 0.0
2017-Apr-20 05:30N 51°58' E 004°06'0 0.0
2017-Apr-20 05:00N 51°58' E 004°06'0 0.0
2017-Apr-20 04:30N 51°58' E 004°06'0 0.0
2017-Apr-20 04:00N 51°58' E 004°06'0 0.0
2017-Apr-20 03:30N 51°58' E 004°06'0 0.0
2017-Apr-20 03:00N 51°58' E 004°06'0 0.0
2017-Apr-20 02:30N 51°58' E 004°06'0 0.0
2017-Apr-20 02:00N 51°58' E 004°06'0 0.0
2017-Apr-20 01:30N 51°58' E 004°06'0 0.0
2017-Apr-20 01:00N 51°58' E 004°06'0 0.0
2017-Apr-20 00:30N 51°58' E 004°06'0 0.0
2017-Apr-20 00:00N 51°58' E 004°06'0 0.0
2017-Apr-19 23:30N 51°58' E 004°06'0 0.0
2017-Apr-19 23:00N 51°58' E 004°06'0 0.0
2017-Apr-19 22:30N 51°58' E 004°06'0 0.0
2017-Apr-19 22:00N 51°58' E 004°06'0 0.0
2017-Apr-19 21:30N 51°58' E 004°06'0 0.0
2017-Apr-19 21:00N 51°58' E 004°06'0 0.0
2017-Apr-19 20:30N 51°58' E 004°06'0 0.0
2017-Apr-19 20:00N 51°58' E 004°06'0 0.0
2017-Apr-19 19:30N 51°58' E 004°06'0 0.0
2017-Apr-19 19:00N 51°58' E 004°06'0 0.0
2017-Apr-19 18:30N 51°58' E 004°06'0 0.0
2017-Apr-19 18:00N 51°58' E 004°06'0 0.0
2017-Apr-19 17:30N 51°58' E 004°06'0 0.0
2017-Apr-19 17:00N 51°58' E 004°06'0 0.0
2017-Apr-19 16:30N 51°58' E 004°06'0 0.0
2017-Apr-19 16:00N 51°58' E 004°06'0 0.0
2017-Apr-19 15:30N 51°58' E 004°06'0 0.0
2017-Apr-19 15:00N 51°58' E 004°06'0 0.0
2017-Apr-19 14:30N 51°58' E 004°06'0 0.0
2017-Apr-19 13:30N 51°58' E 004°06'0 0.0
2017-Apr-19 13:00N 51°58' E 004°06'0 0.0
2017-Apr-19 12:30N 51°58' E 004°06'0 0.0
2017-Apr-19 12:00N 51°58' E 004°06'0 0.0
2017-Apr-19 11:30N 51°58' E 004°06'0 0.0
2017-Apr-19 11:00N 51°58' E 004°06'0 0.0
2017-Apr-19 10:30N 51°58' E 004°06'0 0.0
2017-Apr-19 10:00N 51°58' E 004°06'0 0.0
2017-Apr-19 09:30N 51°58' E 004°06'0 0.0
2017-Apr-19 09:00N 51°58' E 004°06'0 0.0
2017-Apr-19 08:30N 51°58' E 004°06'0 0.0
2017-Apr-19 08:00N 51°58' E 004°06'0 0.0
2017-Apr-19 07:30N 51°58' E 004°06'0 0.0
2017-Apr-19 07:00N 51°58' E 004°06'0 0.0
2017-Apr-19 06:30N 51°58' E 004°06'0 0.0
2017-Apr-19 06:00N 51°58' E 004°06'0 0.0
2017-Apr-19 05:30N 51°58' E 004°06'0 0.0
2017-Apr-19 05:00N 51°58' E 004°06'0 0.0
2017-Apr-19 04:30N 51°58' E 004°06'0 0.0
2017-Apr-19 04:00N 51°58' E 004°06'0 0.0
2017-Apr-19 03:30N 51°58' E 004°06'0 0.0
2017-Apr-19 03:00N 51°58' E 004°06'0 0.0
2017-Apr-19 02:30N 51°58' E 004°06'0 0.0
2017-Apr-19 02:00N 51°58' E 004°06'0 0.0
2017-Apr-19 01:30N 51°58' E 004°06'0 0.0
2017-Apr-19 01:00N 51°58' E 004°06'0 0.0
2017-Apr-19 00:30N 51°58' E 004°06'0 0.0
2017-Apr-19 00:00N 51°58' E 004°06'0 0.0
2017-Apr-18 23:30N 51°58' E 004°06'0 0.0
2017-Apr-18 23:00N 51°58' E 004°06'0 0.0
2017-Apr-18 22:30N 51°58' E 004°06'0 0.0
2017-Apr-18 22:00N 51°58' E 004°06'0 0.0
2017-Apr-18 21:30N 51°58' E 004°06'0 0.0
2017-Apr-18 21:00N 51°58' E 004°06'0 0.0
2017-Apr-18 20:30N 51°58' E 004°06'0 0.0
2017-Apr-18 20:00N 51°58' E 004°06'0 0.0
2017-Apr-18 19:30N 51°58' E 004°06'0 0.0
2017-Apr-18 19:00N 51°58' E 004°06'0 0.0
2017-Apr-18 18:30N 51°58' E 004°06'0 0.0
2017-Apr-18 18:00N 51°58' E 004°06'0 0.0
2017-Apr-18 17:30N 51°58' E 004°06'0 0.0
2017-Apr-18 17:00N 51°58' E 004°06'0 0.0
2017-Apr-18 16:30N 51°58' E 004°06'0 0.0
2017-Apr-18 16:00N 51°58' E 004°06'0 0.0
2017-Apr-18 15:30N 51°58' E 004°06'0 0.0
2017-Apr-18 15:00N 51°58' E 004°06'0 0.0
2017-Apr-18 14:00N 51°58' E 004°06'0 0.0
2017-Apr-18 13:30N 51°58' E 004°06'0 0.0
2017-Apr-18 13:00N 51°58' E 004°06'0 0.0
2017-Apr-18 12:30N 51°58' E 004°06'0 0.0
2017-Apr-18 12:00N 51°58' E 004°06'0 0.0
2017-Apr-18 11:30N 51°58' E 004°06'0 0.0
2017-Apr-18 11:00N 51°58' E 004°06'0 0.0
2017-Apr-18 10:30N 51°58' E 004°06'0 0.0
2017-Apr-18 10:00N 51°58' E 004°06'0 0.0
2017-Apr-18 09:30N 51°58' E 004°06'0 0.0
2017-Apr-18 09:00N 51°58' E 004°06'0 0.0
2017-Apr-18 08:30N 51°58' E 004°06'0 0.0
2017-Apr-18 08:00N 51°58' E 004°06'0 0.0
2017-Apr-18 07:30N 51°58' E 004°06'0 0.0
2017-Apr-18 07:00N 51°58' E 004°06'0 0.0
2017-Apr-18 06:30N 51°58' E 004°06'0 0.0
2017-Apr-18 06:00N 51°58' E 004°06'0 0.0
2017-Apr-18 05:30N 51°58' E 004°06'0 0.0
2017-Apr-18 05:00N 51°58' E 004°06'0 0.0
2017-Apr-18 04:30N 51°58' E 004°06'0 0.0
2017-Apr-18 04:00N 51°58' E 004°06'0 0.0
2017-Apr-18 03:30N 51°58' E 004°06'0 0.0
2017-Apr-18 03:00N 51°58' E 004°06'0 0.0
2017-Apr-18 02:30N 51°58' E 004°06'0 0.0
2017-Apr-18 02:00N 51°58' E 004°06'0 0.0
2017-Apr-18 01:30N 51°58' E 004°06'0 0.0
2017-Apr-18 01:00N 51°58' E 004°06'0 0.0
2017-Apr-18 00:30N 51°58' E 004°06'0 0.0
2017-Apr-18 00:00N 51°58' E 004°06'0 0.0
2017-Apr-17 23:30N 51°58' E 004°06'0 0.0
2017-Apr-17 23:00N 51°58' E 004°06'0 0.0
2017-Apr-17 22:30N 51°58' E 004°06'0 0.0
2017-Apr-17 22:00N 51°58' E 004°06'0 0.0
2017-Apr-17 21:30N 51°58' E 004°06'0 0.0
2017-Apr-17 21:00N 51°58' E 004°06'0 0.0
2017-Apr-17 20:30N 51°58' E 004°06'0 0.0
2017-Apr-17 20:00N 51°58' E 004°06'0 0.0
2017-Apr-17 19:30N 51°58' E 004°06'0 0.0
2017-Apr-17 19:00N 51°58' E 004°06'0 0.0
2017-Apr-17 18:30N 51°58' E 004°06'0 0.0
2017-Apr-17 18:00N 51°58' E 004°06'0 0.0
2017-Apr-17 17:30N 51°58' E 004°06'0 0.0
2017-Apr-17 17:00N 51°58' E 004°06'0 0.0
2017-Apr-17 16:30N 51°58' E 004°06'0 0.0
2017-Apr-17 16:00N 51°58' E 004°06'0 0.0
2017-Apr-17 15:30N 51°58' E 004°06'0 0.0
2017-Apr-17 15:00N 51°58' E 004°06'0 0.0
2017-Apr-17 14:00N 51°58' E 004°06'0 0.0
2017-Apr-17 13:30N 51°58' E 004°06'0 0.0
2017-Apr-17 13:00N 51°58' E 004°06'0 0.0
2017-Apr-17 12:30N 51°58' E 004°06'0 0.0
2017-Apr-17 12:00N 51°58' E 004°06'0 0.0
2017-Apr-17 11:30N 51°58' E 004°06'0 0.0
2017-Apr-17 11:00N 51°58' E 004°06'0 0.0
2017-Apr-17 10:30N 51°58' E 004°06'0 0.0
2017-Apr-17 10:00N 51°58' E 004°06'0 0.0
2017-Apr-17 09:30N 51°58' E 004°06'0 0.0
2017-Apr-17 09:00N 51°58' E 004°06'0 0.0
2017-Apr-17 08:30N 51°58' E 004°06'0 0.0
2017-Apr-17 08:00N 51°58' E 004°06'0 0.0
2017-Apr-17 07:30N 51°58' E 004°06'0 0.0
2017-Apr-17 07:00N 51°58' E 004°06'0 0.0
2017-Apr-17 06:30N 51°58' E 004°06'0 0.0
2017-Apr-17 06:00N 51°58' E 004°06'0 0.0
2017-Apr-17 05:30N 51°58' E 004°06'0 0.0
2017-Apr-17 05:00N 51°58' E 004°06'0 0.0
2017-Apr-17 04:30N 51°58' E 004°06'0 0.0
2017-Apr-17 04:00N 51°58' E 004°06'0 0.0
2017-Apr-17 03:30N 51°58' E 004°06'0 0.0
2017-Apr-17 03:00N 51°58' E 004°06'0 0.0
2017-Apr-17 02:30N 51°58' E 004°06'0 0.0
2017-Apr-17 02:00N 51°58' E 004°06'0 0.0
2017-Apr-17 01:30N 51°58' E 004°06'0 0.0
2017-Apr-17 01:00N 51°58' E 004°06'0 0.0
2017-Apr-17 00:30N 51°58' E 004°06'0 0.0
2017-Apr-17 00:00N 51°58' E 004°06'0 0.0
2017-Apr-16 23:30N 51°58' E 004°06'0 0.0
2017-Apr-16 23:00N 51°58' E 004°06'0 0.0
2017-Apr-16 22:30N 51°58' E 004°06'0 0.0
2017-Apr-16 22:00N 51°58' E 004°06'0 0.0
2017-Apr-16 21:30N 51°58' E 004°06'0 0.0
2017-Apr-16 21:00N 51°58' E 004°06'0 0.0
2017-Apr-16 20:30N 51°58' E 004°06'0 0.0
2017-Apr-16 20:00N 51°58' E 004°06'0 0.0
2017-Apr-16 19:30N 51°58' E 004°06'0 0.0
2017-Apr-16 18:57N 51°58' E 004°06'0 0.0
2017-Apr-16 18:30N 51°58' E 004°06'0 0.0
2017-Apr-16 17:57N 51°58' E 004°06'0 0.0
2017-Apr-16 17:30N 51°58' E 004°06'0 0.0
2017-Apr-16 17:00N 51°58' E 004°06'0 0.0
2017-Apr-16 16:30N 51°58' E 004°06'0 0.0
2017-Apr-16 16:00N 51°58' E 004°06'0 0.0
2017-Apr-16 15:30N 51°58' E 004°06'0 0.0
2017-Apr-16 15:00N 51°58' E 004°06'0 0.0
2017-Apr-16 14:00N 51°58' E 004°06'0 0.0
2017-Apr-16 13:30N 51°58' E 004°06'0 0.0
2017-Apr-16 13:00N 51°58' E 004°06'0 0.0
2017-Apr-16 12:30N 51°58' E 004°06'0 0.0
2017-Apr-16 12:00N 51°58' E 004°06'0 0.0
2017-Apr-16 11:30N 51°58' E 004°06'0 0.0
2017-Apr-16 11:00N 51°58' E 004°06'0 0.0
2017-Apr-16 10:30N 51°58' E 004°06'0 0.0
2017-Apr-16 10:00N 51°58' E 004°06'0 0.0
2017-Apr-16 09:30N 51°58' E 004°06'0 0.0
2017-Apr-16 09:00N 51°58' E 004°06'0 0.0
2017-Apr-16 08:30N 51°58' E 004°06'0 0.1
2017-Apr-16 08:00N 51°58' E 004°07'0 0.3
2017-Apr-16 07:31N 51°58' E 004°06'2 3.3
2017-Apr-16 07:00N 51°59' E 004°04'3 5.9
2017-Apr-16 06:31N 52°00' E 003°60'4 8.0
2017-Apr-16 06:01N 52°02' E 003°54'5 9.5
2017-Apr-16 05:31N 52°01' E 003°46'5 9.8
2017-Apr-16 05:00N 52°00' E 003°38'5 9.8
2017-Apr-16 04:30N 51°60' E 003°30'5 9.9
2017-Apr-16 04:00N 51°59' E 003°22'15 1.8
2017-Apr-15 19:38N 51°57' E 002°58'0 0.0
2017-Apr-15 19:26N 51°57' E 002°58'0 0.0
2017-Apr-15 18:47N 51°57' E 002°58'  
Track history (hours):
 
Tides and Currents Weather Stations Pressure Air Temp Water Temp Dewpoint Dewpoint Depression Visibility Wind Speed Wind Dir Waves Ship Positions

Cape Peony

Last reported at 2017-Apr-25 01:26 UTC. Time now 2017-Apr-30 14:35 UTC.
Position N 49°48' W 005°19'.

Length 292 m; draft 11 m.

Type: Cargo ship. MMSI: 373590000.

Date/timePositionNaut miles runAvg speedWind from/ knotsBaromVisibWave heightAir tempDewpointWater temp
2017-Apr-25 01:26N 49°48' W 005°19'614.9
2017-Apr-25 01:00N 49°49' W 005°10'815.2
2017-Apr-25 00:31N 49°49' W 004°58'815.4
2017-Apr-25 00:01N 49°50' W 004°46'815.5
2017-Apr-24 23:30N 49°52' W 004°34'715.2
2017-Apr-24 23:00N 49°52' W 004°22'915.0
2017-Apr-24 22:26N 49°53' W 004°09'815.2
2017-Apr-24 21:55N 49°54' W 003°57'615.4
2017-Apr-24 21:31N 49°55' W 003°47'815.1
2017-Apr-24 21:00N 49°56' W 003°36'714.5
2017-Apr-24 20:30N 49°57' W 003°25'714.1
2017-Apr-24 20:00N 49°58' W 003°14'713.4
2017-Apr-24 19:30N 49°59' W 003°03'612.5
2017-Apr-24 19:00N 50°00' W 002°54'612.1
2017-Apr-24 18:30N 50°02' W 002°45'1311.7
2017-Apr-24 17:26N 50°05' W 002°26'611.7
2017-Apr-24 16:58N 50°06' W 002°18'1412.3
2017-Apr-24 15:51N 50°10' W 001°57'713.4
2017-Apr-24 15:21N 50°12' W 001°47'514.1
2017-Apr-24 15:00N 50°13' W 001°39'915.0
2017-Apr-24 14:22N 50°16' W 001°25'1416.0
2017-Apr-24 13:30N 50°19' W 001°04'1316.4
2017-Apr-24 12:45N 50°22' W 000°45'416.3
2017-Apr-24 12:30N 50°24' W 000°39'816.0
2017-Apr-24 12:00N 50°26' W 000°27'815.4
2017-Apr-24 11:30N 50°27' W 000°16'815.0
2017-Apr-24 11:00N 50°29' W 000°04'714.6
2017-Apr-24 10:30N 50°32' E 000°07'714.1
2017-Apr-24 10:00N 50°33' E 000°17'713.6
2017-Apr-24 09:30N 50°35' E 000°28'613.0
2017-Apr-24 09:00N 50°38' E 000°37'612.9
2017-Apr-24 08:30N 50°41' E 000°46'612.6
2017-Apr-24 08:00N 50°45' E 000°54'612.6
2017-Apr-24 07:30N 50°48' E 001°02'713.2
2017-Apr-24 07:00N 50°52' E 001°10'714.0
2017-Apr-24 06:30N 50°56' E 001°20'714.5
2017-Apr-24 06:00N 51°01' E 001°28'714.8
2017-Apr-24 05:30N 51°07' E 001°36'714.5
2017-Apr-24 05:00N 51°12' E 001°44'713.9
2017-Apr-24 04:31N 51°17' E 001°51'713.4
2017-Apr-24 04:00N 51°23' E 001°57'612.7
2017-Apr-24 03:31N 51°28' E 002°02'612.3
2017-Apr-24 03:00N 51°33' E 002°08'612.1
2017-Apr-24 02:31N 51°37' E 002°15'611.8
2017-Apr-24 02:01N 51°42' E 002°21'611.5
2017-Apr-24 01:30N 51°46' E 002°28'611.1
2017-Apr-24 01:00N 51°50' E 002°34'611.0
2017-Apr-24 00:29N 51°54' E 002°40'511.0
2017-Apr-24 00:00N 51°58' E 002°46'1611.0
2017-Apr-23 22:33N 52°03' E 003°11'312.2
2017-Apr-23 22:20N 52°03' E 003°15'412.4
2017-Apr-23 22:00N 52°03' E 003°22'613.1
2017-Apr-23 21:30N 52°04' E 003°32'713.6
2017-Apr-23 21:00N 52°03' E 003°43'611.3
2017-Apr-23 20:30N 52°02' E 003°52'510.2
2017-Apr-23 20:00N 52°00' E 003°60'4 9.0
2017-Apr-23 19:30N 51°58' E 004°06'0 0.6
2017-Apr-23 19:00N 51°58' E 004°06'0 0.0
2017-Apr-23 18:30N 51°58' E 004°06'0 0.0
2017-Apr-23 18:00N 51°58' E 004°06'0 0.0
2017-Apr-23 17:30N 51°58' E 004°06'0 0.0
2017-Apr-23 17:00N 51°58' E 004°06'0 0.0
2017-Apr-23 16:30N 51°58' E 004°06'0 0.0
2017-Apr-23 16:00N 51°58' E 004°06'0 0.0
2017-Apr-23 15:30N 51°58' E 004°06'0 0.0
2017-Apr-23 15:00N 51°58' E 004°06'0 0.0
2017-Apr-23 14:00N 51°58' E 004°06'0 0.0
2017-Apr-23 13:30N 51°58' E 004°06'0 0.0
2017-Apr-23 13:00N 51°58' E 004°06'0 0.0
2017-Apr-23 12:30N 51°58' E 004°06'0 0.0
2017-Apr-23 12:00N 51°58' E 004°06'0 0.0
2017-Apr-23 11:30N 51°58' E 004°06'0 0.0
2017-Apr-23 11:00N 51°58' E 004°06'0 0.0
2017-Apr-23 10:30N 51°58' E 004°06'0 0.0
2017-Apr-23 10:00N 51°58' E 004°06'0 0.0
2017-Apr-23 09:30N 51°58' E 004°06'0 0.0
2017-Apr-23 09:00N 51°58' E 004°06'0 0.0
2017-Apr-23 08:30N 51°58' E 004°06'0 0.0
2017-Apr-23 08:00N 51°58' E 004°06'0 0.0
2017-Apr-23 07:30N 51°58' E 004°06'0 0.0
2017-Apr-23 07:00N 51°58' E 004°06'0 0.0
2017-Apr-23 06:30N 51°58' E 004°06'0 0.0
2017-Apr-23 06:00N 51°58' E 004°06'0 0.0
2017-Apr-23 05:30N 51°58' E 004°06'0 0.0
2017-Apr-23 05:00N 51°58' E 004°06'0 0.0
2017-Apr-23 04:30N 51°58' E 004°06'0 0.0
2017-Apr-23 04:00N 51°58' E 004°06'0 0.0
2017-Apr-23 03:30N 51°58' E 004°06'0 0.0
2017-Apr-23 03:00N 51°58' E 004°06'0 0.0
2017-Apr-23 02:30N 51°58' E 004°06'0 0.0
2017-Apr-23 02:00N 51°58' E 004°06'0 0.0
2017-Apr-23 01:30N 51°58' E 004°06'0 0.0
2017-Apr-23 01:00N 51°58' E 004°06'0 0.0
2017-Apr-23 00:30N 51°58' E 004°06'0 0.0
2017-Apr-23 00:00N 51°58' E 004°06'0 0.0
2017-Apr-22 23:30N 51°58' E 004°06'0 0.0
2017-Apr-22 23:00N 51°58' E 004°06'0 0.0
2017-Apr-22 22:30N 51°58' E 004°06'0 0.0
2017-Apr-22 22:00N 51°58' E 004°06'0 0.0
2017-Apr-22 21:30N 51°58' E 004°06'0 0.0
2017-Apr-22 21:00N 51°58' E 004°06'0 0.0
2017-Apr-22 20:30N 51°58' E 004°06'0 0.0
2017-Apr-22 20:00N 51°58' E 004°06'0 0.0
2017-Apr-22 19:30N 51°58' E 004°06'0 0.0
2017-Apr-22 19:00N 51°58' E 004°06'0 0.0
2017-Apr-22 18:30N 51°58' E 004°06'0 0.0
2017-Apr-22 18:00N 51°58' E 004°06'0 0.0
2017-Apr-22 17:30N 51°58' E 004°06'0 0.0
2017-Apr-22 17:00N 51°58' E 004°06'0 0.0
2017-Apr-22 16:30N 51°58' E 004°06'0 0.0
2017-Apr-22 16:00N 51°58' E 004°06'0 0.0
2017-Apr-22 15:30N 51°58' E 004°06'0 0.0
2017-Apr-22 15:00N 51°58' E 004°06'0 0.0
2017-Apr-22 14:30N 51°58' E 004°06'0 0.0
2017-Apr-22 13:30N 51°58' E 004°06'0 0.0
2017-Apr-22 13:00N 51°58' E 004°06'0 0.0
2017-Apr-22 12:30N 51°58' E 004°06'0 0.0
2017-Apr-22 12:00N 51°58' E 004°06'0 0.0
2017-Apr-22 11:30N 51°58' E 004°06'0 0.0
2017-Apr-22 11:00N 51°58' E 004°06'0 0.0
2017-Apr-22 10:30N 51°58' E 004°06'0 0.0
2017-Apr-22 10:00N 51°58' E 004°06'0 0.0
2017-Apr-22 09:30N 51°58' E 004°06'0 0.0
2017-Apr-22 09:00N 51°58' E 004°06'0 0.0
2017-Apr-22 08:30N 51°58' E 004°06'0 0.0
2017-Apr-22 08:00N 51°58' E 004°06'0 0.0
2017-Apr-22 07:30N 51°58' E 004°06'0 0.0
2017-Apr-22 07:00N 51°58' E 004°06'0 0.0
2017-Apr-22 06:30N 51°58' E 004°06'0 0.0
2017-Apr-22 06:00N 51°58' E 004°06'0 0.0
2017-Apr-22 05:30N 51°58' E 004°06'0 0.0
2017-Apr-22 05:00N 51°58' E 004°06'0 0.0
2017-Apr-22 04:30N 51°58' E 004°06'0 0.0
2017-Apr-22 04:00N 51°58' E 004°06'0 0.0
2017-Apr-22 03:30N 51°58' E 004°06'0 0.0
2017-Apr-22 03:00N 51°58' E 004°06'0 0.0
2017-Apr-22 02:30N 51°58' E 004°06'0 0.0
2017-Apr-22 02:00N 51°58' E 004°06'0 0.0
2017-Apr-22 01:30N 51°58' E 004°06'0 0.0
2017-Apr-22 01:00N 51°58' E 004°06'0 0.0
2017-Apr-22 00:30N 51°58' E 004°06'0 0.0
2017-Apr-22 00:00N 51°58' E 004°06'0 0.0
2017-Apr-21 23:30N 51°58' E 004°06'0 0.0
2017-Apr-21 23:00N 51°58' E 004°06'0 0.0
2017-Apr-21 22:30N 51°58' E 004°06'0 0.0
2017-Apr-21 22:00N 51°58' E 004°06'0 0.0
2017-Apr-21 21:30N 51°58' E 004°06'0 0.0
2017-Apr-21 21:00N 51°58' E 004°06'0 0.0
2017-Apr-21 20:30N 51°58' E 004°06'0 0.0
2017-Apr-21 20:00N 51°58' E 004°06'0 0.0
2017-Apr-21 19:30N 51°58' E 004°06'0 0.0
2017-Apr-21 19:00N 51°58' E 004°06'0 0.0
2017-Apr-21 18:30N 51°58' E 004°06'0 0.0
2017-Apr-21 18:00N 51°58' E 004°06'0 0.0
2017-Apr-21 17:30N 51°58' E 004°06'0 0.0
2017-Apr-21 17:00N 51°58' E 004°06'0 0.0
2017-Apr-21 16:30N 51°58' E 004°06'0 0.0
2017-Apr-21 16:00N 51°58' E 004°06'0 0.0
2017-Apr-21 15:30N 51°58' E 004°06'0 0.0
2017-Apr-21 15:00N 51°58' E 004°06'0 0.0
2017-Apr-21 14:30N 51°58' E 004°06'0 0.0
2017-Apr-21 13:30N 51°58' E 004°06'0 0.0
2017-Apr-21 13:00N 51°58' E 004°06'0 0.0
2017-Apr-21 12:30N 51°58' E 004°06'0 0.0
2017-Apr-21 12:00N 51°58' E 004°06'0 0.0
2017-Apr-21 11:30N 51°58' E 004°06'0 0.0
2017-Apr-21 11:00N 51°58' E 004°06'0 0.0
2017-Apr-21 10:30N 51°58' E 004°06'0 0.0
2017-Apr-21 10:00N 51°58' E 004°06'0 0.0
2017-Apr-21 09:30N 51°58' E 004°06'0 0.0
2017-Apr-21 09:00N 51°58' E 004°06'0 0.0
2017-Apr-21 08:30N 51°58' E 004°06'0 0.0
2017-Apr-21 07:57N 51°58' E 004°06'0 0.0
2017-Apr-21 07:30N 51°58' E 004°06'0 0.0
2017-Apr-21 07:00N 51°58' E 004°06'0 0.0
2017-Apr-21 06:30N 51°58' E 004°06'0 0.0
2017-Apr-21 06:00N 51°58' E 004°06'0 0.0
2017-Apr-21 05:30N 51°58' E 004°06'0 0.0
2017-Apr-21 05:00N 51°58' E 004°06'0 0.0
2017-Apr-21 04:30N 51°58' E 004°06'0 0.0
2017-Apr-21 04:00N 51°58' E 004°06'0 0.0
2017-Apr-21 03:30N 51°58' E 004°06'0 0.0
2017-Apr-21 03:00N 51°58' E 004°06'0 0.0
2017-Apr-21 02:30N 51°58' E 004°06'0 0.0
2017-Apr-21 02:00N 51°58' E 004°06'0 0.0
2017-Apr-21 01:30N 51°58' E 004°06'0 0.0
2017-Apr-21 01:00N 51°58' E 004°06'0 0.0
2017-Apr-21 00:30N 51°58' E 004°06'0 0.0
2017-Apr-21 00:00N 51°58' E 004°06'0 0.0
2017-Apr-20 23:30N 51°58' E 004°06'0 0.0
2017-Apr-20 23:00N 51°58' E 004°06'0 0.0
2017-Apr-20 22:30N 51°58' E 004°06'0 0.0
2017-Apr-20 22:00N 51°58' E 004°06'0 0.0
2017-Apr-20 21:30N 51°58' E 004°06'0 0.0
2017-Apr-20 21:00N 51°58' E 004°06'0 0.0
2017-Apr-20 20:30N 51°58' E 004°06'0 0.0
2017-Apr-20 20:00N 51°58' E 004°06'0 0.0
2017-Apr-20 19:30N 51°58' E 004°06'0 0.0
2017-Apr-20 19:00N 51°58' E 004°06'0 0.0
2017-Apr-20 18:30N 51°58' E 004°06'0 0.0
2017-Apr-20 18:00N 51°58' E 004°06'0 0.0
2017-Apr-20 17:30N 51°58' E 004°06'0 0.0
2017-Apr-20 17:00N 51°58' E 004°06'0 0.0
2017-Apr-20 16:30N 51°58' E 004°06'0 0.0
2017-Apr-20 16:00N 51°58' E 004°06'0 0.0
2017-Apr-20 15:30N 51°58' E 004°06'0 0.0
2017-Apr-20 15:00N 51°58' E 004°06'0 0.0
2017-Apr-20 14:30N 51°58' E 004°06'0 0.0
2017-Apr-20 13:30N 51°58' E 004°06'0 0.0
2017-Apr-20 13:00N 51°58' E 004°06'0 0.0
2017-Apr-20 12:30N 51°58' E 004°06'0 0.0
2017-Apr-20 12:00N 51°58' E 004°06'0 0.0
2017-Apr-20 11:30N 51°58' E 004°06'0 0.0
2017-Apr-20 11:00N 51°58' E 004°06'0 0.0
2017-Apr-20 10:30N 51°58' E 004°06'0 0.0
2017-Apr-20 10:00N 51°58' E 004°06'0 0.0
2017-Apr-20 09:30N 51°58' E 004°06'0 0.0
2017-Apr-20 09:00N 51°58' E 004°06'0 0.0
2017-Apr-20 08:30N 51°58' E 004°06'0 0.0
2017-Apr-20 08:00N 51°58' E 004°06'0 0.0
2017-Apr-20 07:30N 51°58' E 004°06'0 0.0
2017-Apr-20 07:00N 51°58' E 004°06'0 0.0
2017-Apr-20 06:30N 51°58' E 004°06'0 0.0
2017-Apr-20 06:00N 51°58' E 004°06'0 0.0
2017-Apr-20 05:30N 51°58' E 004°06'0 0.0
2017-Apr-20 05:00N 51°58' E 004°06'0 0.0
2017-Apr-20 04:30N 51°58' E 004°06'0 0.0
2017-Apr-20 04:00N 51°58' E 004°06'0 0.0
2017-Apr-20 03:30N 51°58' E 004°06'0 0.0
2017-Apr-20 03:00N 51°58' E 004°06'0 0.0
2017-Apr-20 02:30N 51°58' E 004°06'0 0.0
2017-Apr-20 02:00N 51°58' E 004°06'0 0.0
2017-Apr-20 01:30N 51°58' E 004°06'0 0.0
2017-Apr-20 01:00N 51°58' E 004°06'0 0.0
2017-Apr-20 00:30N 51°58' E 004°06'0 0.0
2017-Apr-20 00:00N 51°58' E 004°06'0 0.0
2017-Apr-19 23:30N 51°58' E 004°06'0 0.0
2017-Apr-19 23:00N 51°58' E 004°06'0 0.0
2017-Apr-19 22:30N 51°58' E 004°06'0 0.0
2017-Apr-19 22:00N 51°58' E 004°06'0 0.0
2017-Apr-19 21:30N 51°58' E 004°06'0 0.0
2017-Apr-19 21:00N 51°58' E 004°06'0 0.0
2017-Apr-19 20:30N 51°58' E 004°06'0 0.0
2017-Apr-19 20:00N 51°58' E 004°06'0 0.0
2017-Apr-19 19:30N 51°58' E 004°06'0 0.0
2017-Apr-19 19:00N 51°58' E 004°06'0 0.0
2017-Apr-19 18:30N 51°58' E 004°06'0 0.0
2017-Apr-19 18:00N 51°58' E 004°06'0 0.0
2017-Apr-19 17:30N 51°58' E 004°06'0 0.0
2017-Apr-19 17:00N 51°58' E 004°06'0 0.0
2017-Apr-19 16:30N 51°58' E 004°06'0 0.0
2017-Apr-19 16:00N 51°58' E 004°06'0 0.0
2017-Apr-19 15:30N 51°58' E 004°06'0 0.0
2017-Apr-19 15:00N 51°58' E 004°06'0 0.0
2017-Apr-19 14:30N 51°58' E 004°06'0 0.0
2017-Apr-19 13:30N 51°58' E 004°06'0 0.0
2017-Apr-19 13:00N 51°58' E 004°06'0 0.0
2017-Apr-19 12:30N 51°58' E 004°06'0 0.0
2017-Apr-19 12:00N 51°58' E 004°06'0 0.0
2017-Apr-19 11:30N 51°58' E 004°06'0 0.0
2017-Apr-19 11:00N 51°58' E 004°06'0 0.0
2017-Apr-19 10:30N 51°58' E 004°06'0 0.0
2017-Apr-19 10:00N 51°58' E 004°06'0 0.0
2017-Apr-19 09:30N 51°58' E 004°06'0 0.0
2017-Apr-19 09:00N 51°58' E 004°06'0 0.0
2017-Apr-19 08:30N 51°58' E 004°06'0 0.0
2017-Apr-19 08:00N 51°58' E 004°06'0 0.0
2017-Apr-19 07:30N 51°58' E 004°06'0 0.0
2017-Apr-19 07:00N 51°58' E 004°06'0 0.0
2017-Apr-19 06:30N 51°58' E 004°06'0 0.0
2017-Apr-19 06:00N 51°58' E 004°06'0 0.0
2017-Apr-19 05:30N 51°58' E 004°06'0 0.0
2017-Apr-19 05:00N 51°58' E 004°06'0 0.0
2017-Apr-19 04:30N 51°58' E 004°06'0 0.0
2017-Apr-19 04:00N 51°58' E 004°06'0 0.0
2017-Apr-19 03:30N 51°58' E 004°06'0 0.0
2017-Apr-19 03:00N 51°58' E 004°06'0 0.0
2017-Apr-19 02:30N 51°58' E 004°06'0 0.0
2017-Apr-19 02:00N 51°58' E 004°06'0 0.0
2017-Apr-19 01:30N 51°58' E 004°06'0 0.0
2017-Apr-19 01:00N 51°58' E 004°06'0 0.0
2017-Apr-19 00:30N 51°58' E 004°06'0 0.0
2017-Apr-19 00:00N 51°58' E 004°06'0 0.0
2017-Apr-18 23:30N 51°58' E 004°06'0 0.0
2017-Apr-18 23:00N 51°58' E 004°06'0 0.0
2017-Apr-18 22:30N 51°58' E 004°06'0 0.0
2017-Apr-18 22:00N 51°58' E 004°06'0 0.0
2017-Apr-18 21:30N 51°58' E 004°06'0 0.0
2017-Apr-18 21:00N 51°58' E 004°06'0 0.0
2017-Apr-18 20:30N 51°58' E 004°06'0 0.0
2017-Apr-18 20:00N 51°58' E 004°06'0 0.0
2017-Apr-18 19:30N 51°58' E 004°06'0 0.0
2017-Apr-18 19:00N 51°58' E 004°06'0 0.0
2017-Apr-18 18:30N 51°58' E 004°06'0 0.0
2017-Apr-18 18:00N 51°58' E 004°06'0 0.0
2017-Apr-18 17:30N 51°58' E 004°06'0 0.0
2017-Apr-18 17:00N 51°58' E 004°06'0 0.0
2017-Apr-18 16:30N 51°58' E 004°06'0 0.0
2017-Apr-18 16:00N 51°58' E 004°06'0 0.0
2017-Apr-18 15:30N 51°58' E 004°06'0 0.0
2017-Apr-18 15:00N 51°58' E 004°06'0 0.0
2017-Apr-18 14:00N 51°58' E 004°06'0 0.0
2017-Apr-18 13:30N 51°58' E 004°06'0 0.0
2017-Apr-18 13:00N 51°58' E 004°06'0 0.0
2017-Apr-18 12:30N 51°58' E 004°06'0 0.0
2017-Apr-18 12:00N 51°58' E 004°06'0 0.0
2017-Apr-18 11:30N 51°58' E 004°06'0 0.0
2017-Apr-18 11:00N 51°58' E 004°06'0 0.0
2017-Apr-18 10:30N 51°58' E 004°06'0 0.0
2017-Apr-18 10:00N 51°58' E 004°06'0 0.0
2017-Apr-18 09:30N 51°58' E 004°06'0 0.0
2017-Apr-18 09:00N 51°58' E 004°06'0 0.0
2017-Apr-18 08:30N 51°58' E 004°06'0 0.0
2017-Apr-18 08:00N 51°58' E 004°06'0 0.0
2017-Apr-18 07:30N 51°58' E 004°06'0 0.0
2017-Apr-18 07:00N 51°58' E 004°06'0 0.0
2017-Apr-18 06:30N 51°58' E 004°06'0 0.0
2017-Apr-18 06:00N 51°58' E 004°06'0 0.0
2017-Apr-18 05:30N 51°58' E 004°06'0 0.0
2017-Apr-18 05:00N 51°58' E 004°06'0 0.0
2017-Apr-18 04:30N 51°58' E 004°06'0 0.0
2017-Apr-18 04:00N 51°58' E 004°06'0 0.0
2017-Apr-18 03:30N 51°58' E 004°06'0 0.0
2017-Apr-18 03:00N 51°58' E 004°06'0 0.0
2017-Apr-18 02:30N 51°58' E 004°06'0 0.0
2017-Apr-18 02:00N 51°58' E 004°06'0 0.0
2017-Apr-18 01:30N 51°58' E 004°06'0 0.0
2017-Apr-18 01:00N 51°58' E 004°06'0 0.0
2017-Apr-18 00:30N 51°58' E 004°06'0 0.0
2017-Apr-18 00:00N 51°58' E 004°06'0 0.0
2017-Apr-17 23:30N 51°58' E 004°06'0 0.0
2017-Apr-17 23:00N 51°58' E 004°06'0 0.0
2017-Apr-17 22:30N 51°58' E 004°06'0 0.0
2017-Apr-17 22:00N 51°58' E 004°06'0 0.0
2017-Apr-17 21:30N 51°58' E 004°06'0 0.0
2017-Apr-17 21:00N 51°58' E 004°06'0 0.0
2017-Apr-17 20:30N 51°58' E 004°06'0 0.0
2017-Apr-17 20:00N 51°58' E 004°06'0 0.0
2017-Apr-17 19:30N 51°58' E 004°06'0 0.0
2017-Apr-17 19:00N 51°58' E 004°06'0 0.0
2017-Apr-17 18:30N 51°58' E 004°06'0 0.0
2017-Apr-17 18:00N 51°58' E 004°06'0 0.0
2017-Apr-17 17:30N 51°58' E 004°06'0 0.0
2017-Apr-17 17:00N 51°58' E 004°06'0 0.0
2017-Apr-17 16:30N 51°58' E 004°06'0 0.0
2017-Apr-17 16:00N 51°58' E 004°06'0 0.0
2017-Apr-17 15:30N 51°58' E 004°06'0 0.0
2017-Apr-17 15:00N 51°58' E 004°06'0 0.0
2017-Apr-17 14:00N 51°58' E 004°06'0 0.0
2017-Apr-17 13:30N 51°58' E 004°06'0 0.0
2017-Apr-17 13:00N 51°58' E 004°06'0 0.0
2017-Apr-17 12:30N 51°58' E 004°06'0 0.0
2017-Apr-17 12:00N 51°58' E 004°06'0 0.0
2017-Apr-17 11:30N 51°58' E 004°06'0 0.0
2017-Apr-17 11:00N 51°58' E 004°06'0 0.0
2017-Apr-17 10:30N 51°58' E 004°06'0 0.0
2017-Apr-17 10:00N 51°58' E 004°06'0 0.0
2017-Apr-17 09:30N 51°58' E 004°06'0 0.0
2017-Apr-17 09:00N 51°58' E 004°06'0 0.0
2017-Apr-17 08:30N 51°58' E 004°06'0 0.0
2017-Apr-17 08:00N 51°58' E 004°06'0 0.0
2017-Apr-17 07:30N 51°58' E 004°06'0 0.0
2017-Apr-17 07:00N 51°58' E 004°06'0 0.0
2017-Apr-17 06:30N 51°58' E 004°06'0 0.0
2017-Apr-17 06:00N 51°58' E 004°06'0 0.0
2017-Apr-17 05:30N 51°58' E 004°06'0 0.0
2017-Apr-17 05:00N 51°58' E 004°06'0 0.0
2017-Apr-17 04:30N 51°58' E 004°06'0 0.0
2017-Apr-17 04:00N 51°58' E 004°06'0 0.0
2017-Apr-17 03:30N 51°58' E 004°06'0 0.0
2017-Apr-17 03:00N 51°58' E 004°06'0 0.0
2017-Apr-17 02:30N 51°58' E 004°06'0 0.0
2017-Apr-17 02:00N 51°58' E 004°06'0 0.0
2017-Apr-17 01:30N 51°58' E 004°06'0 0.0
2017-Apr-17 01:00N 51°58' E 004°06'0 0.0
2017-Apr-17 00:30N 51°58' E 004°06'0 0.0
2017-Apr-17 00:00N 51°58' E 004°06'0 0.0
2017-Apr-16 23:30N 51°58' E 004°06'0 0.0
2017-Apr-16 23:00N 51°58' E 004°06'0 0.0
2017-Apr-16 22:30N 51°58' E 004°06'0 0.0
2017-Apr-16 22:00N 51°58' E 004°06'0 0.0
2017-Apr-16 21:30N 51°58' E 004°06'0 0.0
2017-Apr-16 21:00N 51°58' E 004°06'0 0.0
2017-Apr-16 20:30N 51°58' E 004°06'0 0.0
2017-Apr-16 20:00N 51°58' E 004°06'0 0.0
2017-Apr-16 19:30N 51°58' E 004°06'0 0.0
2017-Apr-16 18:57N 51°58' E 004°06'0 0.0
2017-Apr-16 18:30N 51°58' E 004°06'0 0.0
2017-Apr-16 17:57N 51°58' E 004°06'0 0.0
2017-Apr-16 17:30N 51°58' E 004°06'0 0.0
2017-Apr-16 17:00N 51°58' E 004°06'0 0.0
2017-Apr-16 16:30N 51°58' E 004°06'0 0.0
2017-Apr-16 16:00N 51°58' E 004°06'0 0.0
2017-Apr-16 15:30N 51°58' E 004°06'0 0.0
2017-Apr-16 15:00N 51°58' E 004°06'0 0.0
2017-Apr-16 14:00N 51°58' E 004°06'0 0.0
2017-Apr-16 13:30N 51°58' E 004°06'0 0.0
2017-Apr-16 13:00N 51°58' E 004°06'0 0.0
2017-Apr-16 12:30N 51°58' E 004°06'0 0.0
2017-Apr-16 12:00N 51°58' E 004°06'0 0.0
2017-Apr-16 11:30N 51°58' E 004°06'0 0.0
2017-Apr-16 11:00N 51°58' E 004°06'0 0.0
2017-Apr-16 10:30N 51°58' E 004°06'0 0.0
2017-Apr-16 10:00N 51°58' E 004°06'0 0.0
2017-Apr-16 09:30N 51°58' E 004°06'0 0.0
2017-Apr-16 09:00N 51°58' E 004°06'0 0.0
2017-Apr-16 08:30N 51°58' E 004°06'0 0.1
2017-Apr-16 08:00N 51°58' E 004°07'0 0.3
2017-Apr-16 07:31N 51°58' E 004°06'2 3.3
2017-Apr-16 07:00N 51°59' E 004°04'3 5.9
2017-Apr-16 06:31N 52°00' E 003°60'4 8.0
2017-Apr-16 06:01N 52°02' E 003°54'5 9.5
2017-Apr-16 05:31N 52°01' E 003°46'5 9.8
2017-Apr-16 05:00N 52°00' E 003°38'5 9.8
2017-Apr-16 04:30N 51°60' E 003°30'5 9.9
2017-Apr-16 04:00N 51°59' E 003°22'15 1.8
2017-Apr-15 19:38N 51°57' E 002°58'0 0.0
2017-Apr-15 19:26N 51°57' E 002°58'0 0.0
2017-Apr-15 18:47N 51°57' E 002°58'  

Dump ship's entire track history